Time;durP1;ratioP1;P1;durP2;ratioP2;P2;SDS_P1;SDS_P2;PMS_P1;PMS_P2;Temp;Humidity;BMP_temperature;BMP_pressure;BME280_temperature;BME280_humidity;BME280_pressure;Samples;Min_cycle;Max_cycle;Signal;HPM_P1;HPM_P2
2023/12/06 00:01:27;;;;;;;47.95;26.33;;;;;;;;;;4807655;29;20133;-87
2023/12/06 00:03:53;;;;;;;49.97;24.73;;;;;;;;;;4809435;29;20126;-87
2023/12/06 00:06:19;;;;;;;53.22;26.80;;;;;;;;;;4810899;29;20082;-87
2023/12/06 00:08:45;;;;;;;51.05;26.98;;;;;;;;;;4825901;29;20057;-88
2023/12/06 00:11:12;;;;;;;51.03;26.73;;;;;;;;;;4826146;29;20825;-87
2023/12/06 00:13:38;;;;;;;51.20;23.77;;;;;;;;;;4810900;29;20497;-87
2023/12/06 00:16:04;;;;;;;48.13;24.10;;;;;;;;;;4828744;29;20056;-87
2023/12/06 00:18:30;;;;;;;50.00;26.38;;;;;;;;;;4844266;29;20675;-87
2023/12/06 00:20:56;;;;;;;50.53;25.00;;;;;;;;;;4824478;29;20094;-88
2023/12/06 00:23:22;;;;;;;50.60;26.30;;;;;;;;;;4811456;29;20102;-88
2023/12/06 00:25:48;;;;;;;47.08;25.92;;;;;;;;;;4828724;29;20939;-87
2023/12/06 00:28:14;;;;;;;50.45;24.90;;;;;;;;;;4810120;29;20080;-88
2023/12/06 00:30:40;;;;;;;52.22;24.88;;;;;;;;;;4811320;29;20169;-87
2023/12/06 00:33:06;;;;;;;54.10;26.38;;;;;;;;;;4829183;29;20374;-87
2023/12/06 00:35:32;;;;;;;49.88;26.83;;;;;;;;;;4828793;29;20390;-88
2023/12/06 00:37:58;;;;;;;55.17;26.70;;;;;;;;;;4812842;29;20049;-87
2023/12/06 00:40:24;;;;;;;51.33;25.42;;;;;;;;;;4810913;29;20049;-86
2023/12/06 00:42:50;;;;;;;48.97;25.27;;;;;;;;;;4826200;29;20072;-88
2023/12/06 00:45:16;;;;;;;50.80;25.48;;;;;;;;;;4825991;29;20420;-87
2023/12/06 00:47:43;;;;;;;52.53;26.80;;;;;;;;;;4820597;29;20050;-87
2023/12/06 00:50:09;;;;;;;46.42;25.00;;;;;;;;;;4809870;29;20077;-87
2023/12/06 00:52:35;;;;;;;46.33;24.38;;;;;;;;;;4810256;29;20413;-87
2023/12/06 00:55:01;;;;;;;54.95;27.58;;;;;;;;;;4815024;29;20053;-87
2023/12/06 00:57:27;;;;;;;52.72;26.63;;;;;;;;;;4809533;29;20056;-87
2023/12/06 00:59:53;;;;;;;50.65;25.77;;;;;;;;;;4828669;29;20070;-87
2023/12/06 01:02:19;;;;;;;53.65;25.98;;;;;;;;;;4828207;29;20084;-87
2023/12/06 01:04:46;;;;;;;51.17;26.42;;;;;;;;;;4827414;29;20156;-87
2023/12/06 01:07:12;;;;;;;51.75;27.73;;;;;;;;;;4827030;29;20088;-87
2023/12/06 01:09:38;;;;;;;52.33;24.25;;;;;;;;;;4809467;29;20050;-87
2023/12/06 01:12:04;;;;;;;49.35;25.92;;;;;;;;;;4795370;29;20058;-87
2023/12/06 01:14:30;;;;;;;52.95;26.13;;;;;;;;;;4790230;29;20103;-87
2023/12/06 01:16:56;;;;;;;56.88;27.38;;;;;;;;;;4803302;29;20496;-87
2023/12/06 01:19:22;;;;;;;55.05;26.95;;;;;;;;;;4827981;29;20073;-87
2023/12/06 01:21:48;;;;;;;51.22;24.40;;;;;;;;;;4790737;29;20085;-87
2023/12/06 01:24:14;;;;;;;50.50;25.77;;;;;;;;;;4809195;29;20132;-87
2023/12/06 01:26:40;;;;;;;50.10;24.85;;;;;;;;;;4808260;29;20052;-87
2023/12/06 01:29:08;;;;;;;49.40;24.85;;;;;;;;;;4808816;29;20054;-88
2023/12/06 01:31:34;;;;;;;49.78;26.00;;;;;;;;;;4812586;29;20501;-87
2023/12/06 01:34:00;;;;;;;49.78;25.52;;;;;;;;;;4813821;29;20050;-87
2023/12/06 01:36:26;;;;;;;50.83;25.13;;;;;;;;;;4824732;29;20054;-87
2023/12/06 01:38:53;;;;;;;48.35;24.48;;;;;;;;;;4808541;29;20053;-87
2023/12/06 01:41:19;;;;;;;51.58;25.35;;;;;;;;;;4809630;29;20042;-87
2023/12/06 01:43:45;;;;;;;47.20;24.98;;;;;;;;;;4808382;29;20102;-87
2023/12/06 01:46:11;;;;;;;47.20;23.80;;;;;;;;;;4827977;29;20093;-87
2023/12/06 01:48:38;;;;;;;50.55;24.23;;;;;;;;;;4808294;29;20049;-86
2023/12/06 01:51:04;;;;;;;44.85;23.67;;;;;;;;;;4807845;29;20088;-87
2023/12/06 01:53:31;;;;;;;43.67;23.92;;;;;;;;;;4815419;29;20056;-87
2023/12/06 01:55:57;;;;;;;45.00;23.27;;;;;;;;;;4818924;29;20082;-87
2023/12/06 01:58:23;;;;;;;43.50;22.90;;;;;;;;;;4809947;29;20041;-86
2023/12/06 02:00:50;;;;;;;47.17;23.85;;;;;;;;;;4815656;29;20830;-87
2023/12/06 02:03:16;;;;;;;46.75;24.30;;;;;;;;;;4816226;29;20081;-87
2023/12/06 02:05:43;;;;;;;45.38;23.20;;;;;;;;;;4807973;29;20052;-87
2023/12/06 02:08:09;;;;;;;38.65;22.40;;;;;;;;;;4822283;29;20064;-86
2023/12/06 02:10:35;;;;;;;43.20;22.83;;;;;;;;;;4807087;29;20057;-87
2023/12/06 02:13:01;;;;;;;43.15;23.27;;;;;;;;;;4815297;29;20045;-87
2023/12/06 02:15:27;;;;;;;39.45;21.83;;;;;;;;;;4810945;29;20049;-87
2023/12/06 02:17:53;;;;;;;40.63;22.45;;;;;;;;;;4798158;29;20047;-87
2023/12/06 02:20:20;;;;;;;42.80;21.70;;;;;;;;;;4788627;29;20050;-87
2023/12/06 02:22:46;;;;;;;40.47;22.30;;;;;;;;;;4788374;29;20105;-87
2023/12/06 02:25:15;;;;;;;42.47;21.60;;;;;;;;;;4799410;29;20053;-86
2023/12/06 02:27:45;;;;;;;37.75;21.40;;;;;;;;;;4806538;29;20052;-87
2023/12/06 02:30:12;;;;;;;37.72;21.33;;;;;;;;;;4807509;29;20053;-86
2023/12/06 02:32:38;;;;;;;40.03;22.33;;;;;;;;;;4813618;29;20085;-87
2023/12/06 02:35:09;;;;;;;39.15;21.50;;;;;;;;;;4806328;29;20046;-87
2023/12/06 02:37:35;;;;;;;44.33;21.73;;;;;;;;;;4813473;29;20046;-87
2023/12/06 02:40:03;;;;;;;37.97;22.27;;;;;;;;;;4813361;29;20430;-87
2023/12/06 02:42:29;;;;;;;36.05;22.40;;;;;;;;;;4822113;29;20080;-87
2023/12/06 02:44:55;;;;;;;39.22;21.38;;;;;;;;;;4812015;29;20134;-87
2023/12/06 02:47:22;;;;;;;39.75;20.95;;;;;;;;;;4801764;29;20054;-87
2023/12/06 02:49:48;;;;;;;37.00;20.60;;;;;;;;;;4808817;29;20512;-87
2023/12/06 02:52:14;;;;;;;35.35;19.15;;;;;;;;;;4835476;29;20050;-86
2023/12/06 02:54:40;;;;;;;29.80;18.52;;;;;;;;;;4789284;29;20050;-87
2023/12/06 02:57:06;;;;;;;39.05;21.40;;;;;;;;;;4789007;29;20052;-87
2023/12/06 02:59:32;;;;;;;34.58;20.00;;;;;;;;;;4822342;29;20049;-86
2023/12/06 03:01:58;;;;;;;34.42;19.30;;;;;;;;;;4806984;29;20544;-87
2023/12/06 03:04:24;;;;;;;35.67;20.30;;;;;;;;;;4806493;29;20125;-87
2023/12/06 03:06:50;;;;;;;35.90;20.38;;;;;;;;;;4806588;29;20070;-87
2023/12/06 03:09:16;;;;;;;34.75;20.15;;;;;;;;;;4820609;29;20132;-87
2023/12/06 03:11:42;;;;;;;31.15;18.17;;;;;;;;;;4817994;29;20061;-87
2023/12/06 03:14:08;;;;;;;34.30;20.95;;;;;;;;;;4807472;29;20049;-87
2023/12/06 03:16:34;;;;;;;32.35;18.45;;;;;;;;;;4813773;29;20046;-86
2023/12/06 03:19:02;;;;;;;34.08;19.17;;;;;;;;;;4807161;29;20045;-87
2023/12/06 03:21:28;;;;;;;29.95;18.42;;;;;;;;;;4808420;29;20034;-87
2023/12/06 03:23:54;;;;;;;30.95;18.23;;;;;;;;;;4806364;29;20045;-86
2023/12/06 03:26:20;;;;;;;32.75;19.98;;;;;;;;;;4821786;29;20046;-86
2023/12/06 03:28:46;;;;;;;30.00;18.42;;;;;;;;;;4806764;29;20049;-86
2023/12/06 03:31:12;;;;;;;31.42;18.60;;;;;;;;;;4807086;29;20041;-86
2023/12/06 03:33:38;;;;;;;33.97;18.98;;;;;;;;;;4837251;29;20137;-87
2023/12/06 03:36:04;;;;;;;35.67;20.27;;;;;;;;;;4806721;29;20121;-87
2023/12/06 03:38:30;;;;;;;29.50;17.13;;;;;;;;;;4811125;29;20054;-87
2023/12/06 03:40:56;;;;;;;30.75;19.73;;;;;;;;;;4819969;29;20045;-87
2023/12/06 03:43:22;;;;;;;32.63;19.52;;;;;;;;;;4823013;29;20092;-87
2023/12/06 03:45:48;;;;;;;34.33;19.58;;;;;;;;;;4800643;29;20501;-87
2023/12/06 03:48:14;;;;;;;29.60;19.42;;;;;;;;;;4800861;29;20049;-87
2023/12/06 03:50:40;;;;;;;34.58;19.45;;;;;;;;;;4793930;29;20042;-86
2023/12/06 03:53:06;;;;;;;32.58;19.23;;;;;;;;;;4812359;29;20408;-87
2023/12/06 03:55:32;;;;;;;31.48;19.27;;;;;;;;;;4836851;29;20049;-86
2023/12/06 03:57:58;;;;;;;31.48;18.95;;;;;;;;;;4813904;29;20045;-87
2023/12/06 04:00:24;;;;;;;28.48;18.02;;;;;;;;;;4817895;29;20050;-87
2023/12/06 04:02:50;;;;;;;28.38;17.25;;;;;;;;;;4809067;29;20054;-87
2023/12/06 04:05:16;;;;;;;27.27;17.17;;;;;;;;;;4805738;29;20045;-87
2023/12/06 04:07:42;;;;;;;29.33;17.83;;;;;;;;;;4806127;29;20066;-88
2023/12/06 04:10:08;;;;;;;25.15;16.65;;;;;;;;;;4828629;29;20402;-87
2023/12/06 04:12:34;;;;;;;25.67;16.98;;;;;;;;;;4821759;29;20528;-87
2023/12/06 04:15:00;;;;;;;27.63;16.70;;;;;;;;;;4816953;29;20828;-87
2023/12/06 04:17:26;;;;;;;29.10;17.23;;;;;;;;;;4806818;29;20786;-86
2023/12/06 04:19:52;;;;;;;28.52;16.60;;;;;;;;;;4799065;29;20179;-87
2023/12/06 04:22:18;;;;;;;31.80;17.13;;;;;;;;;;4800386;29;20053;-86
2023/12/06 04:24:44;;;;;;;30.60;17.30;;;;;;;;;;4806119;29;20046;-86
2023/12/06 04:27:10;;;;;;;29.63;17.13;;;;;;;;;;4803726;29;20057;-87
2023/12/06 04:29:36;;;;;;;30.88;16.95;;;;;;;;;;4822457;29;20053;-87
2023/12/06 04:32:02;;;;;;;31.13;18.63;;;;;;;;;;4806812;29;20046;-87
2023/12/06 04:34:29;;;;;;;30.75;17.35;;;;;;;;;;4806275;29;20139;-86
2023/12/06 04:36:55;;;;;;;29.95;17.17;;;;;;;;;;4806287;29;20046;-87
2023/12/06 04:39:21;;;;;;;28.88;17.80;;;;;;;;;;4806145;29;20046;-86
2023/12/06 04:41:47;;;;;;;28.23;16.83;;;;;;;;;;4806817;29;20242;-87
2023/12/06 04:44:13;;;;;;;28.27;17.42;;;;;;;;;;4821050;29;20778;-87
2023/12/06 04:46:39;;;;;;;27.25;16.10;;;;;;;;;;4820485;29;20052;-87
2023/12/06 04:49:05;;;;;;;28.88;18.30;;;;;;;;;;4808420;29;20069;-87
2023/12/06 04:51:31;;;;;;;29.70;17.98;;;;;;;;;;4808533;29;20489;-87
2023/12/06 04:53:57;;;;;;;24.42;16.92;;;;;;;;;;4836812;29;20057;-87
2023/12/06 04:56:23;;;;;;;28.52;18.63;;;;;;;;;;4799380;29;20119;-87
2023/12/06 04:58:49;;;;;;;25.95;16.73;;;;;;;;;;4790471;29;20050;-88
2023/12/06 05:01:16;;;;;;;30.30;17.52;;;;;;;;;;4817322;29;20042;-87
2023/12/06 05:03:42;;;;;;;26.80;17.95;;;;;;;;;;4813524;29;20675;-87
2023/12/06 05:06:08;;;;;;;27.25;16.23;;;;;;;;;;4823994;29;20140;-86
2023/12/06 05:08:34;;;;;;;29.30;16.13;;;;;;;;;;4823931;29;20054;-87
2023/12/06 05:11:00;;;;;;;28.00;17.45;;;;;;;;;;4818318;29;20054;-87
2023/12/06 05:13:26;;;;;;;26.92;17.70;;;;;;;;;;4824524;29;20049;-87
2023/12/06 05:15:52;;;;;;;28.45;17.45;;;;;;;;;;4834865;29;20046;-87
2023/12/06 05:18:18;;;;;;;29.55;17.90;;;;;;;;;;4814702;29;20753;-87
2023/12/06 05:20:44;;;;;;;29.45;16.85;;;;;;;;;;4813645;29;20045;-87
2023/12/06 05:23:10;;;;;;;28.83;17.13;;;;;;;;;;4808540;29;20046;-86
2023/12/06 05:25:36;;;;;;;32.22;17.77;;;;;;;;;;4808391;29;20053;-86
2023/12/06 05:28:02;;;;;;;28.58;17.80;;;;;;;;;;4807890;29;20519;-87
2023/12/06 05:30:28;;;;;;;30.15;16.92;;;;;;;;;;4812403;29;20095;-87
2023/12/06 05:32:54;;;;;;;28.38;17.52;;;;;;;;;;4823699;29;20050;-87
2023/12/06 05:35:20;;;;;;;25.73;16.60;;;;;;;;;;4815929;29;20081;-87
2023/12/06 05:37:46;;;;;;;26.15;16.77;;;;;;;;;;4808372;29;20106;-86
2023/12/06 05:40:12;;;;;;;30.92;18.15;;;;;;;;;;4808748;29;20140;-87
2023/12/06 05:42:39;;;;;;;27.98;17.08;;;;;;;;;;4823899;29;20110;-87
2023/12/06 05:45:05;;;;;;;28.88;17.70;;;;;;;;;;4795793;29;20046;-86
2023/12/06 05:47:31;;;;;;;26.38;16.98;;;;;;;;;;4823958;29;20136;-88
2023/12/06 05:49:57;;;;;;;26.90;16.77;;;;;;;;;;4808728;29;20469;-87
2023/12/06 05:52:23;;;;;;;26.55;17.58;;;;;;;;;;4807844;29;20053;-87
2023/12/06 05:54:49;;;;;;;25.98;16.77;;;;;;;;;;4823115;29;20046;-87
2023/12/06 05:57:15;;;;;;;28.95;18.15;;;;;;;;;;4823060;29;20647;-87
2023/12/06 05:59:41;;;;;;;25.92;16.85;;;;;;;;;;4823531;29;20048;-87
2023/12/06 06:02:07;;;;;;;28.15;17.55;;;;;;;;;;4810746;29;20050;-87
2023/12/06 06:04:33;;;;;;;28.67;17.33;;;;;;;;;;4824370;29;20048;-86
2023/12/06 06:06:59;;;;;;;23.67;16.27;;;;;;;;;;4835023;29;20066;-88
2023/12/06 06:09:25;;;;;;;24.65;16.83;;;;;;;;;;4806485;29;20049;-87
2023/12/06 06:11:51;;;;;;;23.15;16.23;;;;;;;;;;4813182;29;20397;-87
2023/12/06 06:14:17;;;;;;;29.33;15.93;;;;;;;;;;4808046;29;20188;-87
2023/12/06 06:16:43;;;;;;;22.38;15.40;;;;;;;;;;4807273;29;20050;-87
2023/12/06 06:19:09;;;;;;;30.10;17.33;;;;;;;;;;4807651;29;20038;-87
2023/12/06 06:21:35;;;;;;;25.58;16.15;;;;;;;;;;4811319;29;20076;-87
2023/12/06 06:24:01;;;;;;;23.70;15.30;;;;;;;;;;4823370;29;20152;-87
2023/12/06 06:26:27;;;;;;;26.17;15.57;;;;;;;;;;4831521;29;20125;-86
2023/12/06 06:28:53;;;;;;;21.17;14.05;;;;;;;;;;4809731;29;20081;-87
2023/12/06 06:31:19;;;;;;;23.08;14.90;;;;;;;;;;4822192;29;20227;-87
2023/12/06 06:33:45;;;;;;;21.23;14.02;;;;;;;;;;4807186;29;20136;-87
2023/12/06 06:36:11;;;;;;;21.80;14.63;;;;;;;;;;4803083;29;20137;-87
2023/12/06 06:38:37;;;;;;;22.05;14.40;;;;;;;;;;4822525;29;20095;-87
2023/12/06 06:41:04;;;;;;;18.92;14.10;;;;;;;;;;4815758;29;20508;-87
2023/12/06 06:43:30;;;;;;;21.27;13.57;;;;;;;;;;4821601;29;20129;-87
2023/12/06 06:45:56;;;;;;;20.50;13.38;;;;;;;;;;4814320;29;20134;-87
2023/12/06 06:48:22;;;;;;;18.00;12.13;;;;;;;;;;4816729;29;20042;-87
2023/12/06 06:50:48;;;;;;;22.95;15.10;;;;;;;;;;4806736;29;20041;-87
2023/12/06 06:53:41;;;;;;;20.00;13.57;;;2.50;99.90;;;;;;4822591;29;20070;-87
2023/12/06 06:56:08;;;;;;;18.80;13.48;;;;;;;;;;4807848;29;20137;-87
2023/12/06 06:58:34;;;;;;;23.00;13.80;;;;;;;;;;4802848;29;20385;-86
2023/12/06 07:01:00;;;;;;;19.05;13.73;;;;;;;;;;4805177;29;20060;-85
2023/12/06 07:03:26;;;;;;;19.80;13.18;;;;;;;;;;4830985;29;20417;-86
2023/12/06 07:05:55;;;;;;;17.20;12.27;;;;;;;;;;4813660;29;20053;-86
2023/12/06 07:08:21;;;;;;;19.42;12.95;;;;;;;;;;4812937;29;20057;-86
2023/12/06 07:10:48;;;;;;;21.63;14.13;;;;;;;;;;4805928;29;20060;-86
2023/12/06 07:13:14;;;;;;;18.38;13.15;;;;;;;;;;4811238;29;20057;-85
2023/12/06 07:15:40;;;;;;;18.88;12.75;;;;;;;;;;4802006;29;20061;-86
2023/12/06 07:18:06;;;;;;;19.38;13.57;;;;;;;;;;4811445;29;20057;-85
2023/12/06 07:20:32;;;;;;;20.48;12.55;;;;;;;;;;4817700;29;20046;-85
2023/12/06 07:23:00;;;;;;;21.73;13.50;;;;;;;;;;4814718;29;20120;-85
2023/12/06 07:25:26;;;;;;;17.67;13.43;;;;;;;;;;4817671;29;20054;-85
2023/12/06 07:27:52;;;;;;;21.77;14.55;;;;;;;;;;4820609;29;20052;-85
2023/12/06 07:30:18;;;;;;;20.02;13.35;;;;;;;;;;4814533;29;20049;-85
2023/12/06 07:32:44;;;;;;;18.95;13.82;;;;;;;;;;4823308;29;20046;-86
2023/12/06 07:35:10;;;;;;;17.73;13.13;;;;;;;;;;4801662;29;20053;-87
2023/12/06 07:37:36;;;;;;;18.23;13.73;;;;;;;;;;4802775;29;20050;-85
2023/12/06 07:40:09;;;;;;;20.50;14.13;;;;;;;;;;4808830;29;20110;-86
2023/12/06 07:42:35;;;;;;;17.70;12.30;;;;;;;;;;4819162;29;20101;-87
2023/12/06 07:45:05;;;;;;;18.95;12.63;;;;;;;;;;4834063;29;20042;-86
2023/12/06 07:47:31;;;;;;;17.73;12.43;;;;;;;;;;4798198;29;20806;-86
2023/12/06 07:49:57;;;;;;;20.92;14.00;;;;;;;;;;4795333;29;20085;-85
2023/12/06 07:52:23;;;;;;;21.77;13.98;;;;;;;;;;4818659;29;20481;-85
2023/12/06 07:54:49;;;;;;;21.25;13.88;;;;;;;;;;4818091;29;20054;-87
2023/12/06 07:57:15;;;;;;;22.70;13.35;;;;;;;;;;4800564;29;20038;-86
2023/12/06 07:59:43;;;;;;;23.10;13.95;;;;;;;;;;4819435;29;20074;-87
2023/12/06 08:02:27;;;;;;;24.85;15.05;;;;;;;;;;4818082;29;20152;-86
2023/12/06 08:04:53;;;;;;;23.30;13.35;;;;;;;;;;4806982;29;20046;-86
2023/12/06 08:07:19;;;;;;;21.75;13.68;;;;;;;;;;4818848;29;20069;-85
2023/12/06 08:09:45;;;;;;;24.05;13.90;;;;;;;;;;4804068;29;20778;-85
2023/12/06 08:12:42;;;;;;;24.75;15.23;;;;;;;;;;4817622;29;20136;-85
2023/12/06 08:15:08;;;;;;;24.10;13.80;;;;;;;;;;4814577;29;20050;-86
2023/12/06 08:17:34;;;;;;;20.58;13.20;;;;;;;;;;4815504;29;20478;-86
2023/12/06 08:20:01;;;;;;;20.63;15.02;;;;;;;;;;4820825;29;20042;-85
2023/12/06 08:22:29;;;;;;;22.95;14.05;;;;;;;;;;4832419;29;20437;-86
2023/12/06 08:25:16;;;;;;;22.58;14.25;;;;;;;;;;4805368;29;20758;-88
2023/12/06 08:28:01;;;;;;;20.02;14.93;;;;;;;;;;4806024;29;20504;-89
2023/12/06 08:30:30;;;;;;;23.55;13.63;;;;;;;;;;4811042;29;20557;-88
2023/12/06 08:32:57;;;;;;;22.90;14.52;;;;;;;;;;4822107;29;20469;-86
2023/12/06 08:35:23;;;;;;;20.95;14.55;;;;;;;;;;4830518;29;20050;-88
2023/12/06 08:37:49;;;;;;;24.05;12.82;;;;;;;;;;4812552;29;20126;-86
2023/12/06 08:40:15;;;;;;;19.90;14.10;;;;;;;;;;4806880;29;20058;-88
2023/12/06 08:42:41;;;;;;;24.40;15.00;;;;;;;;;;4810330;29;20049;-87
2023/12/06 08:45:18;;;;;;;;;;;;;;;;;;;;;
2023/12/06 08:47:48;;;;;;;21.85;14.80;;;;;;;;;;4836151;29;20064;-87
2023/12/06 08:50:14;;;;;;;23.88;13.85;;;;;;;;;;4805659;29;20045;-88
2023/12/06 08:52:44;;;;;;;18.33;13.32;;;;;;;;;;4823997;29;20054;-87
2023/12/06 08:55:10;;;;;;;20.63;15.02;;;;;;;;;;4809757;29;20057;-85
2023/12/06 08:57:36;;;;;;;20.48;13.88;;;;;;;;;;4821952;29;20480;-85
2023/12/06 09:00:07;;;;;;;23.48;13.75;;;;;;;;;;4811475;29;20045;-85
2023/12/06 09:02:33;;;;;;;21.30;14.50;;;;;;;;;;4807132;29;20125;-85
2023/12/06 09:04:59;;;;;;;19.90;13.38;;;;;;;;;;4821815;29;20046;-86
2023/12/06 09:07:25;;;;;;;19.15;13.68;;;;;;;;;;4805212;29;20380;-86
2023/12/06 09:09:51;;;;;;;20.75;14.48;;;;;;;;;;4814333;29;20137;-85
2023/12/06 09:12:17;;;;;;;20.42;14.18;;;;;;;;;;4805002;29;20186;-86
2023/12/06 09:14:44;;;;;;;21.20;13.35;;;;;;;;;;4816665;29;20096;-86
2023/12/06 09:17:10;;;;;;;24.10;15.35;;;;;;;;;;4824222;29;20054;-86
2023/12/06 09:19:38;;;;;;;21.85;14.00;;;;;;;;;;4811272;29;20048;-86
2023/12/06 09:22:05;;;;;;;22.98;14.68;;;;;;;;;;4819226;29;20045;-86
2023/12/06 09:24:31;;;;;;;23.70;15.85;;;;;;;;;;4815728;29;20105;-86
2023/12/06 09:27:00;;;;;;;23.05;15.05;;;;;;;;;;4823626;29;20097;-86
2023/12/06 09:29:33;;;;;;;19.38;12.90;;;;;;;;;;4827888;29;20151;-86
2023/12/06 09:31:59;;;;;;;23.92;14.90;;;;;;;;;;4808049;29;20136;-86
2023/12/06 09:34:34;;;;;;;21.50;14.23;;;;;;;;;;4804293;29;20517;-86
2023/12/06 09:37:00;;;;;;;18.80;13.80;;;;;;;;;;4796945;29;20057;-86
2023/12/06 09:39:27;;;;;;;23.00;14.35;;;;;;;;;;4820525;29;20050;-86
2023/12/06 09:41:59;;;;;;;29.10;13.88;;;;;;;;;;4804350;29;20052;-86
2023/12/06 09:44:26;;;;;;;21.98;14.38;;;;;;;;;;4804491;29;20360;-86
2023/12/06 09:46:54;;;;;;;27.05;16.00;;;;;;;;;;4804568;29;20046;-86
2023/12/06 09:49:20;;;;;;;25.27;14.38;;;;;;;;;;4818665;29;20058;-86
2023/12/06 09:51:47;;;;;;;21.50;14.07;;;;;;;;;;4816227;29;20396;-86
2023/12/06 09:54:16;;;;;;;21.85;13.82;;;;;;;;;;4814112;29;20111;-87
2023/12/06 09:56:43;;;;;;;21.98;13.40;;;;;;;;;;4802888;29;20453;-86
2023/12/06 09:59:09;;;;;;;26.08;14.88;;;;;;;;;;4804876;29;20045;-86
2023/12/06 10:01:35;;;;;;;19.05;12.68;;;;;;;;;;4808721;29;20046;-86
2023/12/06 10:04:03;;;;;;;24.67;14.32;;;;;;;;;;4819492;29;20469;-85
2023/12/06 10:06:29;;;;;;;22.35;13.55;;;;;;;;;;4802395;29;20176;-87
2023/12/06 10:08:55;;;;;;;20.10;14.15;;;;;;;;;;4818986;29;20107;-87
2023/12/06 10:11:25;;;;;;;19.95;12.90;;;;;;;;;;4817783;29;20049;-86
2023/12/06 10:13:51;;;;;;;21.48;14.00;;;;;;;;;;4815577;29;20058;-87
2023/12/06 10:16:21;;;;;;;19.23;13.15;;;;;;;;;;4804335;29;20072;-85
2023/12/06 10:18:55;;;;;;;19.17;12.38;;;;;;;;;;4822957;29;20046;-85
2023/12/06 10:21:21;;;;;;;22.67;14.32;;;;;;;;;;4820071;29;20125;-85
2023/12/06 10:23:59;;;;;;;18.67;13.60;;;;;;;;;;4805410;29;20135;-85
2023/12/06 10:26:29;;;;;;;21.05;13.10;;;;;;;;;;4797972;29;20690;-86
2023/12/06 10:28:55;;;;;;;22.40;14.95;;;;;;;;;;4823241;29;20050;-85
2023/12/06 10:31:21;;;;;;;20.92;12.73;;;;;;;;;;4808227;29;20132;-86
2023/12/06 10:33:54;;;;;;;20.13;13.85;;;;;;;;;;4800484;29;20606;-86
2023/12/06 10:36:21;;;;;;;20.77;13.35;;;;;;;;;;4812635;29;20057;-86
2023/12/06 10:38:57;;;;;;;17.33;12.48;;;;;;;;;;4820143;29;20185;-86
2023/12/06 10:41:25;;;;;;;18.77;12.65;;;;;;;;;;4818036;29;20045;-85
2023/12/06 10:43:53;;;;;;;23.35;12.65;;;;;;;;;;4819991;29;20597;-85
2023/12/06 10:49:42;;;;;;;20.83;13.70;;;;;;;;;;4824411;29;20158;-89
2023/12/06 10:52:09;;;;;;;21.10;12.55;;;;;;;;;;4812334;29;20429;-85
2023/12/06 10:54:35;;;;;;;18.80;12.15;;;;;;;;;;4802777;29;20054;-87
2023/12/06 10:57:03;;;;;;;16.52;12.45;;;;;;;;;;4804224;29;20056;-87
2023/12/06 10:59:31;;;;;;;22.13;12.10;;;;;;;;;;4804246;29;20050;-88
2023/12/06 11:01:57;;;;;;;18.05;12.57;;;;;;;;;;4804278;29;20153;-86
2023/12/06 11:04:25;;;;;;;18.08;12.25;;;;;;;;;;4814048;29;20149;-86
2023/12/06 11:06:57;;;;;;;16.80;11.48;;;;;;;;;;4793226;29;20062;-86
2023/12/06 11:09:39;;;;;;;19.42;11.90;;;;;;;;;;4802531;29;20046;-89
2023/12/06 11:12:11;;;;;;;17.00;11.40;;;;;;;;;;4814950;29;20046;-88
2023/12/06 11:14:40;;;;;;;18.27;11.77;;;;;;;;;;4818809;29;20049;-88
2023/12/06 11:17:27;;;;;;;20.30;11.88;;;;;;;;;;4811125;29;20617;-88
2023/12/06 11:19:53;;;;;;;18.73;11.18;;;;;;;;;;4817776;29;20046;-89
2023/12/06 11:22:22;;;;;;;20.45;11.15;;;;;;;;;;4811431;29;20133;-88
2023/12/06 11:24:49;;;;;;;17.65;10.68;;;;;;;;;;4797477;29;20054;-88
2023/12/06 11:27:15;;;;;;;14.82;10.73;;;;;;;;;;4797756;29;20198;-89
2023/12/06 11:29:42;;;;;;;16.95;10.50;;;;;;;;;;4807578;29;20053;-89
2023/12/06 11:32:14;;;;;;;14.00;9.90;;;;;;;;;;4812179;29;20072;-89
2023/12/06 11:34:40;;;;;;;15.48;10.88;;;;;;;;;;4798472;29;20153;-89
2023/12/06 11:37:14;;;;;;;14.60;10.00;;;;;;;;;;4808982;29;20044;-89
2023/12/06 11:39:41;;;;;;;19.25;11.00;;;;;;;;;;4810761;29;20049;-87
2023/12/06 11:42:08;;;;;;;16.58;10.90;;;;;;;;;;4800421;29;20063;-88
2023/12/06 11:44:34;;;;;;;13.65;9.77;;;;;;;;;;4819764;29;20050;-88
2023/12/06 11:47:07;;;;;;;15.63;10.77;;;;;;;;;;4803191;29;20111;-86
2023/12/06 11:49:34;;;;;;;15.93;9.82;;;;;;;;;;4809232;29;20042;-86
2023/12/06 11:52:00;;;;;;;16.80;10.20;;;;;;;;;;4799323;29;20679;-86
2023/12/06 11:54:28;;;;;;;14.07;9.82;;;;;;;;;;4805601;29;20060;-86
2023/12/06 11:57:05;;;;;;;16.08;9.68;;;;;;;;;;4806242;29;20564;-87
2023/12/06 11:59:32;;;;;;;15.50;10.38;;;;;;;;;;4806135;29;20171;-86
2023/12/06 12:01:58;;;;;;;18.23;9.88;;;;;;;;;;4828041;29;20053;-86
2023/12/06 12:04:24;;;;;;;14.57;8.85;;;;;;;;;;4824776;29;20049;-86
2023/12/06 12:06:50;;;;;;;14.73;9.73;;;;;;;;;;4808861;29;20069;-86
2023/12/06 12:09:16;;;;;;;12.57;8.75;;;;;;;;;;4815918;29;20114;-86
2023/12/06 12:11:45;;;;;;;15.27;8.82;;;;;;;;;;4823853;29;20064;-86
2023/12/06 12:14:12;;;;;;;16.48;8.82;;;;;;;;;;4820169;29;20149;-86
2023/12/06 12:16:39;;;;;;;16.27;9.75;;;;;;;;;;4808187;29;20045;-86
2023/12/06 12:19:06;;;;;;;13.35;9.20;;;;;;;;;;4810763;29;20049;-86
2023/12/06 12:22:04;;;;;;;12.88;8.23;;;;;;;;;;4808343;29;20045;-86
2023/12/06 12:24:59;;;;;;;12.50;8.82;;;;;;;;;;4827082;29;20087;-86
2023/12/06 12:27:29;;;;;;;14.70;9.23;;;;;;;;;;4803792;29;20835;-86
2023/12/06 12:29:56;;;;;;;12.07;9.02;;;;;;;;;;4816033;29;20049;-86
2023/12/06 12:32:22;;;;;;;13.77;9.38;;;;;;;;;;4817999;29;20060;-86
2023/12/06 12:35:10;;;;;;;11.65;8.02;;;;;;;;;;4811392;29;20058;-86
2023/12/06 12:38:41;;;;;;;11.77;8.73;;;;;;;;;;4709627;30;20088;-86
2023/12/06 12:41:26;;;;;;;13.25;8.38;;;;;;;;;;4724303;30;20052;-86
2023/12/06 12:43:52;;;;;;;11.25;8.10;;;;;;;;;;4798567;29;20061;-87
2023/12/06 12:46:18;;;;;;;11.52;9.10;;;;;;;;;;4808242;29;20404;-87
2023/12/06 12:48:44;;;;;;;10.32;8.30;;;;;;;;;;4815838;29;20053;-86
2023/12/06 12:51:12;;;;;;;14.52;8.88;;;;;;;;;;4825253;29;20101;-87
2023/12/06 12:53:38;;;;;;;10.00;8.23;;;;;;;;;;4808842;29;20054;-87
2023/12/06 12:56:04;;;;;;;13.23;8.30;;;;;;;;;;4820770;29;20648;-86
2023/12/06 12:58:32;;;;;;;11.18;8.65;;;;;;;;;;4823537;29;20038;-86
2023/12/06 13:01:00;;;;;;;9.90;8.07;;;;;;;;;;4826926;29;20389;-86
2023/12/06 13:03:36;;;;;;;12.80;8.95;;;;;;;;;;4811858;29;20049;-86
2023/12/06 13:06:19;;;;;;;10.40;8.68;;;;;;;;;;4827139;29;20068;-86
2023/12/06 13:08:45;;;;;;;10.90;7.85;;;;;;;;;;4822728;29;20129;-86
2023/12/06 13:11:11;;;;;;;11.13;7.90;;;;;;;;;;4819834;29;20042;-86
2023/12/06 13:13:37;;;;;;;12.43;8.82;;;;;;;;;;4815198;29;20045;-86
2023/12/06 13:16:03;;;;;;;11.93;8.48;;;;;;;;;;4804784;29;20475;-87
2023/12/06 13:18:30;;;;;;;10.15;8.10;;;;;;;;;;4822194;29;20567;-86
2023/12/06 13:20:56;;;;;;;10.23;8.15;;;;;;;;;;4828297;29;20054;-86
2023/12/06 13:23:22;;;;;;;12.85;8.95;;;;;;;;;;4823232;29;20594;-86
2023/12/06 13:25:48;;;;;;;12.20;8.40;;;;;;;;;;4800723;29;20053;-87
2023/12/06 13:28:14;;;;;;;12.68;9.23;;;;;;;;;;4807096;29;20053;-86
2023/12/06 13:30:40;;;;;;;17.25;9.35;;;;;;;;;;4803559;29;20069;-86
2023/12/06 13:33:06;;;;;;;9.18;7.95;;;;;;;;;;4801716;29;20049;-87
2023/12/06 13:35:32;;;;;;;16.75;8.82;;;;;;;;;;4804367;29;20041;-87
2023/12/06 13:37:58;;;;;;;12.75;8.00;;;;;;;;;;4817915;29;20158;-87
2023/12/06 13:40:25;;;;;;;13.07;9.25;;;;;;;;;;4805328;29;20081;-86
2023/12/06 13:42:51;;;;;;;14.02;9.02;;;;;;;;;;4806455;29;20072;-87
2023/12/06 13:45:17;;;;;;;12.73;8.52;;;;;;;;;;4811608;29;20049;-87
2023/12/06 13:47:43;;;;;;;15.32;9.02;;;;;;;;;;4798741;29;20046;-87
2023/12/06 13:50:09;;;;;;;12.90;9.55;;;;;;;;;;4789477;29;20061;-87
2023/12/06 13:52:35;;;;;;;11.63;8.73;;;;;;;;;;4802406;29;20057;-87
2023/12/06 13:55:04;;;;;;;15.02;9.05;;;;;;;;;;4805343;29;20046;-87
2023/12/06 13:57:30;;;;;;;11.77;9.63;;;;;;;;;;4806967;29;20123;-87
2023/12/06 13:59:56;;;;;;;12.90;9.50;;;;;;;;;;4822981;29;20161;-87
2023/12/06 14:02:23;;;;;;;15.07;9.40;;;;;;;;;;4819270;29;20925;-87
2023/12/06 14:04:51;;;;;;;14.95;8.77;;;;;;;;;;4822971;29;20686;-88
2023/12/06 14:07:17;;;;;;;11.25;8.65;;;;;;;;;;4820503;29;20066;-89
2023/12/06 14:09:43;;;;;;;12.20;8.50;;;;;;;;;;4808280;29;20070;-88
2023/12/06 14:12:09;;;;;;;12.15;8.23;;;;;;;;;;4817880;29;20045;-88
2023/12/06 14:14:35;;;;;;;13.02;8.18;;;;;;;;;;4818575;29;20045;-88
2023/12/06 14:17:02;;;;;;;11.10;8.23;;;;;;;;;;4809642;29;20061;-89
2023/12/06 14:19:47;;;;;;;10.18;7.68;;;;;;;;;;4811025;29;20501;-89
2023/12/06 14:22:19;;;;;;;11.25;7.93;;;;;;;;;;4827881;29;20129;-89
2023/12/06 14:24:47;;;;;;;10.77;8.52;;;;;;;;;;4824072;29;20045;-89
2023/12/06 14:30:33;;;;;;;10.55;7.38;;;;;;;;;;4839346;29;20428;-87